Time;durP1;ratioP1;P1;durP2;ratioP2;P2;SDS_P1;SDS_P2;PMS_P1;PMS_P2;Temp;Humidity;BMP_temperature;BMP_pressure;BME280_temperature;BME280_humidity;BME280_pressure;Samples;Min_cycle;Max_cycle;Signal;HPM_P1;HPM_P2
2023/06/27 00:02:20;;;;;;;5.03;2.83;;;16.90;99.90;;;;;;5074686;28;20123;-72
2023/06/27 00:04:47;;;;;;;6.15;2.88;;;16.70;99.90;;;;;;5057829;28;20043;-72
2023/06/27 00:07:13;;;;;;;6.40;2.90;;;16.90;99.90;;;;;;5074259;28;20071;-71
2023/06/27 00:09:38;;;;;;;5.38;2.42;;;16.70;99.90;;;;;;5074547;28;20064;-72
2023/06/27 00:12:06;;;;;;;5.65;3.42;;;16.70;99.90;;;;;;5074359;28;20118;-72
2023/06/27 00:14:36;;;;;;;4.05;2.58;;;16.70;99.90;;;;;;5074280;28;20040;-72
2023/06/27 00:17:04;;;;;;;6.22;2.70;;;16.80;99.90;;;;;;5074327;28;20046;-72
2023/06/27 00:19:31;;;;;;;7.90;2.58;;;16.70;99.90;;;;;;5073948;28;20032;-72
2023/06/27 00:21:57;;;;;;;3.45;2.33;;;;;;;;;;5092300;28;20043;-72
2023/06/27 00:24:23;;;;;;;5.72;3.03;;;;;;;;;;5057861;28;20039;-72
2023/06/27 00:26:50;;;;;;;5.20;3.20;;;16.60;99.90;;;;;;5074126;28;20048;-72
2023/06/27 00:29:15;;;;;;;4.53;2.75;;;16.50;99.90;;;;;;5091611;28;20055;-72
2023/06/27 00:31:41;;;;;;;4.30;2.65;;;16.50;99.90;;;;;;5074114;28;20039;-72
2023/06/27 00:34:07;;;;;;;6.68;2.70;;;16.50;99.90;;;;;;5073966;28;20110;-72
2023/06/27 00:36:32;;;;;;;4.20;2.67;;;16.50;99.90;;;;;;5057670;28;20036;-72
2023/06/27 00:38:59;;;;;;;5.25;3.08;;;;;;;;;;5073319;28;20066;-72
2023/06/27 00:41:24;;;;;;;9.05;3.58;;;16.40;99.90;;;;;;5074337;28;20079;-72
2023/06/27 00:43:50;;;;;;;4.20;2.58;;;16.40;99.90;;;;;;5073894;28;20527;-72
2023/06/27 00:46:26;;;;;;;5.80;2.85;;;16.30;99.90;;;;;;5073924;28;20035;-70
2023/06/27 00:48:52;;;;;;;5.38;2.88;;;16.30;99.90;;;;;;5073332;28;20241;-70
2023/06/27 00:51:18;;;;;;;10.65;3.38;;;;;;;;;;5073635;28;20576;-70
2023/06/27 00:53:43;;;;;;;5.05;3.00;;;16.10;99.90;;;;;;5091999;28;20040;-73
2023/06/27 00:56:10;;;;;;;5.25;2.50;;;16.40;99.90;;;;;;5091200;28;20036;-70
2023/06/27 00:58:36;;;;;;;6.00;2.85;;;16.40;99.90;;;;;;5091276;28;20036;-71
2023/06/27 01:01:03;;;;;;;7.68;3.10;;;16.30;99.90;;;;;;5073472;28;20075;-73
2023/06/27 01:03:32;;;;;;;7.82;2.95;;;;;;;;;;5073821;28;20044;-71
2023/06/27 01:06:01;;;;;;;6.18;2.75;;;16.10;99.90;;;;;;5057046;28;20086;-71
2023/06/27 01:08:36;;;;;;;6.82;2.65;;;16.30;99.90;;;;;;5073249;28;20131;-71
2023/06/27 01:11:03;;;;;;;3.60;2.67;;;16.20;99.90;;;;;;5073510;28;20048;-71
2023/06/27 01:13:29;;;;;;;4.15;2.50;;;16.00;99.90;;;;;;5073730;28;20112;-71
2023/06/27 01:15:57;;;;;;;5.03;2.83;;;16.30;99.90;;;;;;5073518;28;20388;-71
2023/06/27 01:18:27;;;;;;;5.78;2.58;;;16.10;99.90;;;;;;5056243;28;20044;-71
2023/06/27 01:20:53;;;;;;;7.55;3.42;;;16.30;99.90;;;;;;5073424;28;20530;-71
2023/06/27 01:23:30;;;;;;;9.82;2.47;;;16.00;99.90;;;;;;5073479;28;20082;-71
2023/06/27 01:26:07;;;;;;;5.35;2.40;;;16.40;99.90;;;;;;5073688;28;20036;-71
2023/06/27 01:28:32;;;;;;;9.00;2.70;;;16.00;99.90;;;;;;5072992;28;20090;-71
2023/06/27 01:31:01;;;;;;;4.55;2.38;;;16.20;99.90;;;;;;5056509;28;20479;-71
2023/06/27 01:33:41;;;;;;;5.35;2.90;;;16.20;99.90;;;;;;5073517;28;20044;-71
2023/06/27 01:36:18;;;;;;;5.95;2.55;;;16.10;99.90;;;;;;5073531;28;20169;-71
2023/06/27 01:38:51;;;;;;;6.43;2.67;;;15.90;99.90;;;;;;5072857;28;20062;-71
2023/06/27 01:41:18;;;;;;;;;;;17.00;99.90;;;;;;5057078;28;20040;-71
2023/06/27 01:43:44;;;;;;;6.65;2.40;;;16.10;99.90;;;;;;5056527;28;19916;-71
2023/06/27 01:46:11;;;;;;;7.45;3.35;;;15.90;99.90;;;;;;5073285;28;20036;-71
2023/06/27 01:48:40;;;;;;;5.10;2.90;;;16.00;99.90;;;;;;5072769;28;20036;-71
2023/06/27 01:51:09;;;;;;;3.78;2.25;;;16.00;99.90;;;;;;5072899;28;20040;-71
2023/06/27 01:53:36;;;;;;;4.15;2.30;;;15.90;99.90;;;;;;5073495;28;20063;-71
2023/06/27 01:56:03;;;;;;;7.35;2.78;;;16.10;99.90;;;;;;5056938;28;20040;-71
2023/06/27 01:58:29;;;;;;;6.70;2.55;;;16.00;99.90;;;;;;5072760;28;20457;-71
2023/06/27 02:00:55;;;;;;;3.63;2.53;;;;;;;;;;5073011;28;20033;-71
2023/06/27 02:03:21;;;;;;;5.07;2.63;;;;;;;;;;5073197;28;20105;-71
2023/06/27 02:05:47;;;;;;;9.15;2.63;;;16.00;99.90;;;;;;5056470;28;20047;-71
2023/06/27 02:08:13;;;;;;;5.72;2.60;;;15.90;99.90;;;;;;5060005;28;20134;-71
2023/06/27 02:10:38;;;;;;;5.50;3.05;;;15.90;99.90;;;;;;5059941;28;20040;-71
2023/06/27 02:13:04;;;;;;;5.85;2.50;;;;;;;;;;5095059;28;20040;-71
2023/06/27 02:15:30;;;;;;;16.23;3.83;;;15.80;99.90;;;;;;5076816;28;20043;-72
2023/06/27 02:17:57;;;;;;;3.92;2.63;;;15.90;99.90;;;;;;5076098;28;20040;-71
2023/06/27 02:20:22;;;;;;;4.93;2.60;;;15.70;99.90;;;;;;5076222;28;20047;-71
2023/06/27 02:22:48;;;;;;;7.15;3.13;;;15.90;99.90;;;;;;5076743;28;20039;-71
2023/06/27 02:25:14;;;;;;;5.65;2.67;;;15.80;99.90;;;;;;5076437;28;20412;-71
2023/06/27 02:27:40;;;;;;;6.47;3.05;;;15.70;99.90;;;;;;5094632;28;20044;-71
2023/06/27 02:30:06;;;;;;;6.57;2.90;;;15.80;99.90;;;;;;5076251;28;20042;-71
2023/06/27 02:32:32;;;;;;;5.18;2.28;;;15.80;99.90;;;;;;5076391;28;20499;-70
2023/06/27 02:34:57;;;;;;;3.38;2.30;;;15.80;99.90;;;;;;5076158;28;20036;-71
2023/06/27 02:37:23;;;;;;;6.47;2.30;;;15.80;99.90;;;;;;5076072;28;20140;-71
2023/06/27 02:39:50;;;;;;;6.28;2.75;;;15.90;99.90;;;;;;5076112;28;20040;-71
2023/06/27 02:42:16;;;;;;;8.15;2.58;;;15.90;99.90;;;;;;5059569;28;20115;-70
2023/06/27 02:44:42;;;;;;;6.07;2.60;;;;;;;;;;5076201;28;20139;-70
2023/06/27 02:47:07;;;;;;;5.35;2.55;;;15.90;99.90;;;;;;5075725;28;20039;-70
2023/06/27 02:49:33;;;;;;;5.93;2.47;;;15.90;99.90;;;;;;5094089;28;20047;-70
2023/06/27 02:51:58;;;;;;;5.95;2.67;;;15.90;99.90;;;;;;5076542;28;20043;-70
2023/06/27 02:54:24;;;;;;;3.95;2.22;;;15.80;99.90;;;;;;5076359;28;20081;-71
2023/06/27 02:56:50;;;;;;;7.68;2.30;;;;;;;;;;5076305;28;20093;-71
2023/06/27 02:59:16;;;;;;;8.00;2.50;;;16.00;99.90;;;;;;5058486;28;20040;-70
2023/06/27 03:01:41;;;;;;;6.88;2.67;;;15.90;99.90;;;;;;5075897;28;20665;-71
2023/06/27 03:04:09;;;;;;;5.90;2.35;;;15.90;99.90;;;;;;5093866;28;20085;-71
2023/06/27 03:06:35;;;;;;;7.40;3.10;;;15.80;99.90;;;;;;5076405;28;20392;-71
2023/06/27 03:09:01;;;;;;;5.15;2.63;;;;;;;;;;5059457;28;20048;-71
2023/06/27 03:11:26;;;;;;;8.93;2.50;;;15.80;99.90;;;;;;5094152;28;20047;-71
2023/06/27 03:13:52;;;;;;;10.73;2.80;;;15.80;99.90;;;;;;5094308;28;20032;-70
2023/06/27 03:16:18;;;;;;;4.57;3.08;;;15.90;99.90;;;;;;5093879;28;20059;-70
2023/06/27 03:18:43;;;;;;;4.80;2.80;;;15.70;99.90;;;;;;5092137;28;20496;-70
2023/06/27 03:21:09;;;;;;;5.03;2.60;;;15.70;99.90;;;;;;5081917;22;20515;-68
2023/06/27 03:23:34;;;;;;;7.70;2.80;;;15.70;99.90;;;;;;5075507;28;20043;-68
2023/06/27 03:26:00;;;;;;;7.82;2.75;;;15.70;99.90;;;;;;5075434;28;20044;-68
2023/06/27 03:28:26;;;;;;;7.35;2.88;;;15.80;99.90;;;;;;5093331;28;20036;-69
2023/06/27 03:30:51;;;;;;;7.45;3.08;;;15.60;99.90;;;;;;5093424;28;20128;-68
2023/06/27 03:33:17;;;;;;;4.40;2.42;;;15.90;99.90;;;;;;5093548;28;20635;-68
2023/06/27 03:35:42;;;;;;;3.95;2.30;;;15.80;99.90;;;;;;5093522;28;20067;-68
2023/06/27 03:38:08;;;;;;;6.80;3.70;;;16.70;99.90;;;;;;5058149;28;20415;-68
2023/06/27 03:40:34;;;;;;;5.40;2.47;;;15.90;99.90;;;;;;5074811;28;20036;-68
2023/06/27 03:43:00;;;;;;;6.28;2.60;;;15.80;99.90;;;;;;5075132;28;20044;-68
2023/06/27 03:45:26;;;;;;;9.88;2.85;;;15.90;99.90;;;;;;5074962;28;20042;-69
2023/06/27 03:47:51;;;;;;;6.18;2.70;;;15.90;99.90;;;;;;5074627;28;20477;-68
2023/06/27 03:50:17;;;;;;;3.47;2.50;;;15.90;99.90;;;;;;5093085;28;20040;-68
2023/06/27 03:52:43;;;;;;;4.18;2.28;;;15.80;99.90;;;;;;5093151;28;20036;-68
2023/06/27 03:55:09;;;;;;;4.95;3.08;;;;;;;;;;5093153;28;20075;-68
2023/06/27 03:57:34;;;;;;;9.13;2.83;;;15.80;99.90;;;;;;5074541;28;20581;-69
2023/06/27 04:00:00;;;;;;;5.65;2.80;;;16.00;99.90;;;;;;5074652;28;20032;-68
2023/06/27 04:02:27;;;;;;;5.78;2.80;;;15.70;99.90;;;;;;5074964;28;20036;-68
2023/06/27 04:04:52;;;;;;;6.32;2.58;;;15.50;99.90;;;;;;5074665;28;20048;-68
2023/06/27 04:07:18;;;;;;;5.32;3.03;;;15.70;99.90;;;;;;5074357;28;20043;-68
2023/06/27 04:09:43;;;;;;;3.50;2.38;;;15.60;99.90;;;;;;5074722;28;20036;-68
2023/06/27 04:12:09;;;;;;;4.45;2.88;;;15.90;99.90;;;;;;5074863;28;20036;-67
2023/06/27 04:14:35;;;;;;;5.32;2.75;;;15.70;99.90;;;;;;5074696;28;20040;-69
2023/06/27 04:17:00;;;;;;;5.38;2.58;;;15.80;99.90;;;;;;5074498;28;20443;-68
2023/06/27 04:19:26;;;;;;;6.72;2.85;;;15.70;99.90;;;;;;5073872;28;20075;-68
2023/06/27 04:21:52;;;;;;;5.57;2.97;;;15.70;99.90;;;;;;5074328;28;20040;-69
2023/06/27 04:24:17;;;;;;;6.30;2.90;;;16.30;99.90;;;;;;5074669;28;20028;-69
2023/06/27 04:26:43;;;;;;;5.00;2.85;;;15.60;99.90;;;;;;5074522;28;20475;-69
2023/06/27 04:29:09;;;;;;;4.72;2.63;;;15.80;99.90;;;;;;5073618;28;20073;-69
2023/06/27 04:31:35;;;;;;;6.93;3.38;;;16.10;99.90;;;;;;5075034;28;20036;-68
2023/06/27 04:34:00;;;;;;;4.78;3.35;;;15.80;99.90;;;;;;5093917;28;20036;-69
2023/06/27 04:36:27;;;;;;;5.22;2.42;;;16.10;99.90;;;;;;5075748;28;20384;-70
2023/06/27 04:38:52;;;;;;;7.80;3.00;;;16.00;99.90;;;;;;5073803;28;20431;-70
2023/06/27 04:41:18;;;;;;;6.88;3.17;;;16.20;99.90;;;;;;5057668;28;20036;-70
2023/06/27 04:43:44;;;;;;;4.35;2.58;;;;;;;;;;5057614;28;20059;-70
2023/06/27 04:46:10;;;;;;;8.00;2.85;;;16.30;99.90;;;;;;5074161;28;20044;-70
2023/06/27 04:48:36;;;;;;;8.70;2.83;;;17.10;99.90;;;;;;5073349;28;20040;-70
2023/06/27 04:51:01;;;;;;;6.53;2.95;;;16.50;99.90;;;;;;5073993;28;20121;-70
2023/06/27 04:53:27;;;;;;;7.38;2.75;;;16.40;99.90;;;;;;5073952;28;20035;-69
2023/06/27 04:55:53;;;;;;;6.80;2.65;;;16.90;99.90;;;;;;5074439;28;20054;-69
2023/06/27 04:58:20;;;;;;;6.35;2.88;;;16.60;99.90;;;;;;5056908;28;20097;-69
2023/06/27 05:00:51;;;;;;;7.82;2.47;;;16.60;99.90;;;;;;5073828;28;20047;-68
2023/06/27 05:03:17;;;;;;;6.05;3.05;;;16.70;99.90;;;;;;5074163;28;20407;-69
2023/06/27 05:05:44;;;;;;;9.90;3.30;;;16.80;99.90;;;;;;5073882;28;20444;-69
2023/06/27 05:08:10;;;;;;;6.07;2.47;;;17.20;99.90;;;;;;5091449;28;20044;-69
2023/06/27 05:10:36;;;;;;;5.57;2.30;;;17.10;99.90;;;;;;5073741;28;20131;-69
2023/06/27 05:13:02;;;;;;;5.57;2.40;;;17.00;99.90;;;;;;5073981;28;20139;-69
2023/06/27 05:15:27;;;;;;;8.60;2.55;;;17.20;99.90;;;;;;5073554;28;20040;-69
2023/06/27 05:18:14;;;;;;;6.97;2.67;;;17.30;99.90;;;;;;5073170;28;20051;-69
2023/06/27 05:20:44;;;;;;;9.68;2.20;;;17.40;99.90;;;;;;5073146;28;20496;-69
2023/06/27 05:23:10;;;;;;;9.65;2.67;;;17.20;99.90;;;;;;5073751;28;20028;-69
2023/06/27 05:25:36;;;;;;;11.98;3.05;;;17.40;99.90;;;;;;5091616;28;20414;-69
2023/06/27 05:28:02;;;;;;;13.80;2.50;;;17.60;99.90;;;;;;5073364;28;20055;-69
2023/06/27 05:30:28;;;;;;;3.60;2.10;;;17.40;99.90;;;;;;5073906;28;20036;-69
2023/06/27 05:32:54;;;;;;;9.70;2.33;;;17.70;99.90;;;;;;5073759;28;20422;-69
2023/06/27 05:35:21;;;;;;;7.50;1.75;;;17.90;99.90;;;;;;5073405;28;20044;-69
2023/06/27 05:37:47;;;;;;;12.48;3.22;;;18.10;99.90;;;;;;5073102;28;20075;-68
2023/06/27 05:40:12;;;;;;;5.63;1.85;;;18.40;99.90;;;;;;5073515;28;20036;-69
2023/06/27 05:42:39;;;;;;;7.95;2.38;;;18.20;99.90;;;;;;5076370;28;20081;-69
2023/06/27 05:45:05;;;;;;;9.63;2.00;;;18.20;99.90;;;;;;5078014;28;20476;-69
2023/06/27 05:47:31;;;;;;;6.38;1.40;;;18.20;99.90;;;;;;5077251;28;20086;-69
2023/06/27 05:49:56;;;;;;;9.60;2.03;;;19.00;99.90;;;;;;5077537;28;20091;-69
2023/06/27 05:52:22;;;;;;;7.20;1.67;;;18.40;99.90;;;;;;5077306;28;20043;-70
2023/06/27 05:54:49;;;;;;;4.60;1.85;;;18.50;99.90;;;;;;5077542;28;20119;-69
2023/06/27 05:57:14;;;;;;;6.45;1.83;;;18.80;99.90;;;;;;5076823;28;20540;-69
2023/06/27 05:59:40;;;;;;;8.25;2.05;;;18.80;99.90;;;;;;5076948;28;20071;-68
2023/06/27 06:02:06;;;;;;;5.15;1.40;;;18.80;99.90;;;;;;5095410;28;20046;-69
2023/06/27 06:04:31;;;;;;;7.78;1.33;;;18.80;99.90;;;;;;5077351;28;20438;-69
2023/06/27 06:07:00;;;;;;;5.45;1.67;;;19.00;99.90;;;;;;5077135;28;20074;-69
2023/06/27 06:09:26;;;;;;;6.43;1.52;;;19.10;99.90;;;;;;5076403;28;20065;-69
2023/06/27 06:11:52;;;;;;;8.50;1.67;;;18.90;99.90;;;;;;5076925;28;20128;-69
2023/06/27 06:14:17;;;;;;;9.93;1.95;;;19.20;99.90;;;;;;5076996;28;20512;-69
2023/06/27 06:16:43;;;;;;;10.10;1.63;;;19.30;99.90;;;;;;5076920;28;20043;-68
2023/06/27 06:19:11;;;;;;;7.22;1.40;;;19.10;99.90;;;;;;5076302;28;20510;-69
2023/06/27 06:21:37;;;;;;;3.33;1.38;;;19.50;99.90;;;;;;5060098;28;20036;-69
2023/06/27 06:24:03;;;;;;;3.13;1.27;;;19.40;99.90;;;;;;5094893;28;20035;-69
2023/06/27 06:26:28;;;;;;;8.85;1.13;;;19.70;99.90;;;;;;5076835;28;20090;-69
2023/06/27 06:28:54;;;;;;;7.38;1.67;;;19.50;99.90;;;;;;5076338;28;20040;-69
2023/06/27 06:31:21;;;;;;;4.38;1.10;;;19.90;99.90;;;;;;5076350;28;20036;-69
2023/06/27 06:33:48;;;;;;;3.92;1.00;;;19.90;99.90;;;;;;5076746;28;20048;-69
2023/06/27 06:36:14;;;;;;;9.68;1.50;;;19.90;99.90;;;;;;5076557;28;20091;-69
2023/06/27 06:38:40;;;;;;;6.50;1.15;;;20.30;99.90;;;;;;5076291;28;20040;-69
2023/06/27 06:41:06;;;;;;;5.63;1.40;;;20.30;99.90;;;;;;5076196;28;20032;-69
2023/06/27 06:43:31;;;;;;;4.57;1.20;;;20.50;99.90;;;;;;5076695;28;20380;-69
2023/06/27 06:45:58;;;;;;;7.65;1.58;;;20.70;99.90;;;;;;5076685;28;20036;-69
2023/06/27 06:48:24;;;;;;;5.32;1.08;;;20.80;99.90;;;;;;5076194;28;20055;-69
2023/06/27 06:50:53;;;;;;;9.27;1.60;;;20.60;99.90;;;;;;5076171;28;20032;-69
2023/06/27 06:53:19;;;;;;;5.78;1.27;;;20.50;99.90;;;;;;5061079;28;20044;-69
2023/06/27 06:55:45;;;;;;;3.70;1.33;;;20.60;99.90;;;;;;5080493;28;20570;-69
2023/06/27 06:58:11;;;;;;;7.35;1.05;;;20.80;99.90;;;;;;5079761;28;20079;-69
2023/06/27 07:00:36;;;;;;;7.18;1.35;;;20.70;99.90;;;;;;5076559;28;20040;-69
2023/06/27 07:03:08;;;;;;;8.35;1.73;;;21.10;99.90;;;;;;5076022;28;20032;-69
2023/06/27 07:05:37;;;;;;;6.38;1.10;;;20.70;99.90;;;;;;5059217;28;20085;-69
2023/06/27 07:08:04;;;;;;;6.05;1.13;;;20.70;99.90;;;;;;5075637;28;20047;-69
2023/06/27 07:10:30;;;;;;;2.58;1.02;;;20.90;99.90;;;;;;5075439;28;20044;-69
2023/06/27 07:12:56;;;;;;;2.97;1.10;;;20.80;99.90;;;;;;5076554;28;20047;-69
2023/06/27 07:15:23;;;;;;;7.45;1.38;;;21.30;99.90;;;;;;5076204;28;20044;-70
2023/06/27 07:17:50;;;;;;;10.90;1.63;;;20.60;99.90;;;;;;5076000;28;20097;-70
2023/06/27 07:20:16;;;;;;;3.60;1.33;;;20.70;99.90;;;;;;5076255;28;20036;-70
2023/06/27 07:22:42;;;;;;;3.40;1.20;;;21.20;99.90;;;;;;5076566;28;20043;-70
2023/06/27 07:25:08;;;;;;;3.33;1.20;;;21.30;99.90;;;;;;5077084;28;20093;-69
2023/06/27 07:27:33;;;;;;;4.53;1.40;;;21.10;99.90;;;;;;5094092;28;20595;-70
2023/06/27 07:29:59;;;;;;;6.35;1.42;;;21.50;99.90;;;;;;5075933;28;20040;-69
2023/06/27 07:32:25;;;;;;;6.32;0.95;;;21.50;99.90;;;;;;5076098;28;20040;-70
2023/06/27 07:34:51;;;;;;;5.28;1.58;;;20.90;99.90;;;;;;5075598;28;20086;-69
2023/06/27 07:37:16;;;;;;;9.70;2.25;;;20.90;99.90;;;;;;5093697;28;20434;-70
2023/06/27 07:39:42;;;;;;;8.45;2.13;;;20.80;99.90;;;;;;5075524;28;20036;-69
2023/06/27 07:42:07;;;;;;;3.80;1.08;;;20.90;99.90;;;;;;5075494;28;20118;-69
2023/06/27 07:44:34;;;;;;;4.85;0.98;;;20.80;99.90;;;;;;5075541;28;20508;-69
2023/06/27 07:46:59;;;;;;;3.25;1.08;;;20.70;99.90;;;;;;5075911;28;20043;-69
2023/06/27 07:49:25;;;;;;;4.80;1.38;;;20.80;99.90;;;;;;5093230;28;20094;-69
2023/06/27 07:51:51;;;;;;;5.75;1.50;;;20.90;99.90;;;;;;5075783;28;20047;-69
2023/06/27 07:54:19;;;;;;;7.07;1.58;;;20.70;99.90;;;;;;5075285;28;20051;-69
2023/06/27 07:56:46;;;;;;;4.70;1.40;;;20.80;99.90;;;;;;5075527;28;20055;-69
2023/06/27 07:59:13;;;;;;;10.82;1.73;;;21.40;99.90;;;;;;5074438;28;20048;-71
2023/06/27 08:01:40;;;;;;;8.60;1.67;;;20.80;99.90;;;;;;5075140;28;20028;-69
2023/06/27 08:04:06;;;;;;;3.55;1.08;;;20.80;99.90;;;;;;5074662;28;20040;-69
2023/06/27 08:06:32;;;;;;;8.38;1.70;;;20.90;99.90;;;;;;5075154;28;20035;-69
2023/06/27 08:08:58;;;;;;;4.55;1.00;;;20.90;99.90;;;;;;5074377;28;20036;-69
2023/06/27 08:11:23;;;;;;;7.57;1.70;;;21.00;99.90;;;;;;5074823;28;20092;-69
2023/06/27 08:13:49;;;;;;;7.32;2.10;;;21.00;99.90;;;;;;5093064;28;20556;-69
2023/06/27 08:16:15;;;;;;;5.72;1.20;;;20.90;99.90;;;;;;5074921;28;20560;-69
2023/06/27 08:18:40;;;;;;;4.80;0.90;;;21.00;99.90;;;;;;5074382;28;20040;-70
2023/06/27 08:21:06;;;;;;;4.20;1.10;;;21.30;99.90;;;;;;5074592;28;20055;-68
2023/06/27 08:23:33;;;;;;;9.07;1.40;;;21.30;99.90;;;;;;5075066;28;20123;-70
2023/06/27 08:25:58;;;;;;;5.35;1.70;;;21.50;99.90;;;;;;5058166;28;20136;-70
2023/06/27 08:28:24;;;;;;;7.57;1.70;;;22.20;99.90;;;;;;5074404;28;20036;-70
2023/06/27 08:30:50;;;;;;;7.18;1.33;;;21.60;99.90;;;;;;5092716;28;20028;-70
2023/06/27 08:33:15;;;;;;;5.63;1.10;;;21.50;99.90;;;;;;5074767;28;20306;-70
2023/06/27 08:35:41;;;;;;;3.58;1.17;;;21.60;99.90;;;;;;5075073;28;20046;-69
2023/06/27 08:38:08;;;;;;;4.43;1.50;;;22.00;99.90;;;;;;5074084;28;20560;-70
2023/06/27 08:40:38;;;;;;;7.78;1.80;;;21.80;99.90;;;;;;5092826;28;20040;-69
2023/06/27 08:43:06;;;;;;;5.50;1.17;;;21.60;99.90;;;;;;5092844;28;20032;-70
2023/06/27 08:45:35;;;;;;;6.40;1.20;;;21.70;99.90;;;;;;5057603;28;20089;-70
2023/06/27 08:48:02;;;;;;;4.00;1.20;;;21.70;99.90;;;;;;5091798;28;20101;-70
2023/06/27 08:50:28;;;;;;;5.22;1.35;;;21.70;99.90;;;;;;5092496;28;20392;-69
2023/06/27 08:52:59;;;;;;;3.72;1.20;;;21.80;99.90;;;;;;5074301;28;20044;-70
2023/06/27 08:55:37;;;;;;;9.73;1.70;;;21.70;99.90;;;;;;5092397;28;20044;-70
2023/06/27 08:58:11;;;;;;;6.70;1.45;;;22.10;99.90;;;;;;5073789;28;20507;-69
2023/06/27 09:00:37;;;;;;;4.40;1.15;;;21.40;99.90;;;;;;5073911;28;20092;-69
2023/06/27 09:03:04;;;;;;;6.15;1.30;;;21.50;99.90;;;;;;5074000;28;20117;-70
2023/06/27 09:05:33;;;;;;;5.07;1.40;;;22.10;99.90;;;;;;5074125;28;20063;-70
2023/06/27 09:07:58;;;;;;;6.82;1.25;;;21.60;99.90;;;;;;5091999;28;20040;-70
2023/06/27 09:10:25;;;;;;;5.78;1.45;;;21.70;99.90;;;;;;5074531;28;20063;-70
2023/06/27 09:12:53;;;;;;;3.88;1.33;;;21.70;99.90;;;;;;5092624;28;20044;-68
2023/06/27 09:15:19;;;;;;;5.05;1.60;;;22.20;99.90;;;;;;5074269;28;20094;-70
2023/06/27 09:17:45;;;;;;;4.70;0.77;;;21.80;99.90;;;;;;5073113;28;20090;-70
2023/06/27 09:20:16;;;;;;;6.80;1.10;;;21.70;99.90;;;;;;5073763;28;20040;-70
2023/06/27 09:22:42;;;;;;;6.85;1.42;;;21.70;99.90;;;;;;5074534;28;20081;-69
2023/06/27 09:25:12;;;;;;;6.75;1.30;;;21.60;99.90;;;;;;5092884;28;20032;-70
2023/06/27 09:27:38;;;;;;;5.53;1.17;;;21.80;99.90;;;;;;5074314;28;20051;-70
2023/06/27 09:30:09;;;;;;;6.03;1.20;;;21.90;99.90;;;;;;5074420;28;20568;-69
2023/06/27 09:32:50;;;;;;;6.47;1.00;;;21.90;99.90;;;;;;5073639;28;20127;-69
2023/06/27 09:35:18;;;;;;;8.38;1.83;;;21.60;99.90;;;;;;5073422;28;20110;-69
2023/06/27 09:37:43;;;;;;;6.20;1.45;;;21.60;99.90;;;;;;5072840;28;20123;-69
2023/06/27 09:40:25;;;;;;;5.88;1.13;;;21.80;99.90;;;;;;5073185;28;20119;-69
2023/06/27 09:42:51;;;;;;;9.20;1.38;;;21.90;99.90;;;;;;5073504;28;20103;-69
2023/06/27 09:45:17;;;;;;;6.30;1.45;;;22.10;99.90;;;;;;5073234;28;20085;-69
2023/06/27 09:47:43;;;;;;;3.95;1.05;;;21.80;99.90;;;;;;5056250;28;20206;-69
2023/06/27 09:50:09;;;;;;;6.15;1.23;;;21.80;99.90;;;;;;5073014;28;20127;-69
2023/06/27 09:52:35;;;;;;;7.80;1.20;;;21.80;99.90;;;;;;5072969;28;20043;-69
2023/06/27 09:55:00;;;;;;;8.95;1.63;;;21.90;99.90;;;;;;5073317;28;20071;-69
2023/06/27 09:57:29;;;;;;;5.93;1.38;;;22.10;99.90;;;;;;5072561;28;20036;-69
2023/06/27 09:59:58;;;;;;;8.25;1.42;;;21.80;99.90;;;;;;5056636;28;20036;-70
2023/06/27 10:02:29;;;;;;;4.00;1.25;;;22.10;99.90;;;;;;5073261;28;20071;-69
2023/06/27 10:04:55;;;;;;;10.18;1.40;;;22.00;99.90;;;;;;5091101;28;20467;-69
2023/06/27 10:07:20;;;;;;;6.63;2.25;;;22.40;99.90;;;;;;5072923;28;20071;-69
2023/06/27 10:09:46;;;;;;;8.63;2.40;;;21.90;99.90;;;;;;5056143;28;20109;-69
2023/06/27 10:12:14;;;;;;;6.43;1.60;;;22.20;99.90;;;;;;5073511;28;20434;-70
2023/06/27 10:14:40;;;;;;;3.17;1.30;;;22.40;99.70;;;;;;5072935;28;20075;-69
2023/06/27 10:17:06;;;;;;;2.58;1.10;;;22.50;99.60;;;;;;5073306;28;20075;-69
2023/06/27 10:19:32;;;;;;;4.07;1.45;;;22.60;99.30;;;;;;5072067;28;20047;-69
2023/06/27 10:22:01;;;;;;;2.33;0.82;;;22.90;98.60;;;;;;5072683;28;20534;-69
2023/06/27 10:24:29;;;;;;;5.20;1.60;;;22.50;99.20;;;;;;5090832;28;20036;-69
2023/06/27 10:27:01;;;;;;;4.90;1.10;;;22.40;98.90;;;;;;5056518;28;20130;-69
2023/06/27 10:29:31;;;;;;;4.60;1.20;;;22.40;98.70;;;;;;5075837;28;20123;-69
2023/06/27 10:31:58;;;;;;;4.07;1.67;;;23.20;99.10;;;;;;5059653;28;20491;-69
2023/06/27 10:34:32;;;;;;;6.72;1.35;;;22.50;98.60;;;;;;5059942;28;20446;-69
2023/06/27 10:37:00;;;;;;;7.28;1.60;;;22.50;98.50;;;;;;5076424;28;20042;-69
2023/06/27 10:39:26;;;;;;;4.97;1.20;;;22.80;98.70;;;;;;5093836;28;20044;-69
2023/06/27 10:41:58;;;;;;;3.13;0.90;;;22.70;98.60;;;;;;5094418;28;20063;-69
2023/06/27 10:44:24;;;;;;;2.25;0.90;;;22.80;98.30;;;;;;5076456;28;20419;-69
2023/06/27 10:47:15;;;;;;;6.63;1.55;;;22.80;98.30;;;;;;5059673;28;20036;-69
2023/06/27 10:49:45;;;;;;;11.75;1.95;;;22.70;98.30;;;;;;5075887;28;20042;-69
2023/06/27 10:52:23;;;;;;;7.03;1.45;;;22.50;99.10;;;;;;5094453;28;20122;-69
2023/06/27 10:55:14;;;;;;;8.40;1.90;;;22.60;99.10;;;;;;5076296;28;20533;-69
2023/06/27 10:57:44;;;;;;;2.28;1.02;;;22.80;98.60;;;;;;5075446;28;20040;-69
2023/06/27 11:00:14;;;;;;;6.68;1.15;;;23.10;98.70;;;;;;5076027;28;20040;-69
2023/06/27 11:02:45;;;;;;;5.65;1.13;;;23.30;98.60;;;;;;5076010;28;20032;-69
2023/06/27 11:05:16;;;;;;;6.65;2.22;;;23.30;99.00;;;;;;5075600;28;20040;-69
2023/06/27 11:07:52;;;;;;;9.48;1.92;;;23.00;98.60;;;;;;5058601;28;20039;-69
2023/06/27 11:10:23;;;;;;;3.78;1.27;;;23.20;98.70;;;;;;5059194;28;20128;-69
2023/06/27 11:12:49;;;;;;;7.22;1.20;;;23.00;98.50;;;;;;5058835;28;20040;-69
2023/06/27 11:15:17;;;;;;;3.25;0.90;;;22.90;98.30;;;;;;5058737;28;20051;-69
2023/06/27 11:17:45;;;;;;;8.32;1.52;;;23.00;98.20;;;;;;5058354;28;20035;-69
2023/06/27 11:20:12;;;;;;;4.68;1.08;;;22.80;98.30;;;;;;5075331;28;20032;-69
2023/06/27 11:22:37;;;;;;;6.78;1.40;;;22.40;99.00;;;;;;5075209;28;20118;-69
2023/06/27 11:25:16;;;;;;;7.53;1.10;;;22.10;99.20;;;;;;5093632;28;20072;-70
2023/06/27 11:27:42;;;;;;;6.72;1.17;;;22.40;99.10;;;;;;5075446;28;20079;-70
2023/06/27 11:30:08;;;;;;;4.88;1.40;;;22.60;99.50;;;;;;5075464;28;20040;-70
2023/06/27 11:32:33;;;;;;;3.88;1.55;;;22.70;99.40;;;;;;5075651;28;20117;-69
2023/06/27 11:34:59;;;;;;;5.00;1.60;;;22.80;98.80;;;;;;5075574;28;20131;-69
2023/06/27 11:37:25;;;;;;;7.07;1.40;;;22.80;98.90;;;;;;5058127;28;20075;-69
2023/06/27 11:39:52;;;;;;;9.00;1.52;;;22.80;98.50;;;;;;5092212;28;20055;-70
2023/06/27 11:42:30;;;;;;;12.77;1.65;;;22.90;97.60;;;;;;5075271;28;20047;-70
2023/06/27 11:44:55;;;;;;;6.47;1.10;;;23.40;98.30;;;;;;5075146;28;20105;-69
2023/06/27 11:47:21;;;;;;;9.20;2.00;;;23.50;98.50;;;;;;5074721;28;20040;-71
2023/06/27 11:49:47;;;;;;;4.07;1.13;;;23.60;98.40;;;;;;5074800;28;20093;-70
2023/06/27 11:52:12;;;;;;;7.93;1.42;;;23.90;98.40;;;;;;5074662;28;20040;-70
2023/06/27 11:54:49;;;;;;;4.35;1.27;;;23.60;97.40;;;;;;5074554;28;20471;-69
2023/06/27 11:57:17;;;;;;;4.75;1.00;;;23.30;97.70;;;;;;5074684;28;20041;-69
2023/06/27 11:59:43;;;;;;;4.93;1.10;;;23.70;97.50;;;;;;5074389;28;20113;-69
2023/06/27 12:02:09;;;;;;;4.32;1.27;;;23.50;97.00;;;;;;5074529;28;20036;-70
2023/06/27 12:04:35;;;;;;;9.20;1.10;;;23.80;97.30;;;;;;5092660;28;20044;-70
2023/06/27 12:07:20;;;;;;;3.22;1.13;;;23.80;97.20;;;;;;5074514;28;20040;-69
2023/06/27 12:09:45;;;;;;;3.45;0.80;;;23.40;97.30;;;;;;5074191;28;20040;-69
2023/06/27 12:12:11;;;;;;;4.53;1.30;;;23.80;97.30;;;;;;5092602;28;20046;-69
2023/06/27 12:14:37;;;;;;;5.10;1.10;;;23.90;97.30;;;;;;5092498;28;20036;-70
2023/06/27 12:17:02;;;;;;;6.97;0.90;;;23.70;96.90;;;;;;5092655;28;20112;-70
2023/06/27 12:19:28;;;;;;;6.63;1.27;;;23.40;96.00;;;;;;5092081;28;20110;-69
2023/06/27 12:21:54;;;;;;;8.70;1.42;;;23.20;96.50;;;;;;5074107;28;20036;-70
2023/06/27 12:24:20;;;;;;;5.35;0.98;;;23.40;96.90;;;;;;5092453;28;20036;-69
2023/06/27 12:26:47;;;;;;;7.22;1.70;;;23.30;97.00;;;;;;5092715;28;20089;-69
2023/06/27 12:29:13;;;;;;;4.97;1.05;;;23.50;96.90;;;;;;5073436;28;20044;-70
2023/06/27 12:31:40;;;;;;;5.47;1.20;;;23.20;97.00;;;;;;5073934;28;20036;-69
2023/06/27 12:34:07;;;;;;;10.15;1.55;;;23.50;97.40;;;;;;5057202;28;20043;-70
2023/06/27 12:36:33;;;;;;;19.25;1.77;;;23.50;96.60;;;;;;5074049;28;20036;-69
2023/06/27 12:38:59;;;;;;;7.65;1.23;;;23.50;96.20;;;;;;5073786;28;20089;-70
2023/06/27 12:41:26;;;;;;;5.28;1.63;;;23.40;96.40;;;;;;5074166;28;20038;-70
2023/06/27 12:43:52;;;;;;;4.28;1.20;;;23.10;96.70;;;;;;5074657;28;20437;-70
2023/06/27 12:46:18;;;;;;;7.97;1.17;;;23.20;97.20;;;;;;5074395;28;20226;-70
2023/06/27 12:48:45;;;;;;;5.00;1.77;;;22.80;96.90;;;;;;5073731;28;20040;-70
2023/06/27 12:51:14;;;;;;;4.20;0.82;;;22.70;97.40;;;;;;5073941;28;20040;-69